createdAt,value
2022-09-20T00:01:58.378Z,99.90
2022-09-20T00:07:00.116Z,99.90
2022-09-20T00:12:02.123Z,99.90
2022-09-20T00:17:03.934Z,99.90
2022-09-20T00:22:05.773Z,99.90
2022-09-20T00:27:07.506Z,99.90
2022-09-20T00:32:09.330Z,99.90
2022-09-20T00:37:11.090Z,99.90
2022-09-20T00:42:15.959Z,99.90
2022-09-20T00:47:43.222Z,99.90
2022-09-20T00:52:49.354Z,99.90
2022-09-20T00:57:51.614Z,99.90
2022-09-20T01:02:58.943Z,99.90
2022-09-20T01:08:01.130Z,99.90
2022-09-20T01:13:03.762Z,99.90
2022-09-20T01:18:07.587Z,99.90
2022-09-20T01:23:37.198Z,99.90
2022-09-20T01:28:42.234Z,99.90
2022-09-20T01:34:17.810Z,99.90
2022-09-20T01:39:39.540Z,99.90
2022-09-20T01:44:56.319Z,99.90
2022-09-20T01:50:22.987Z,99.90
2022-09-20T01:56:10.066Z,99.90
2022-09-20T02:01:31.079Z,99.90
2022-09-20T02:07:00.447Z,99.90
2022-09-20T02:12:33.696Z,99.90
2022-09-20T02:17:54.455Z,99.90
2022-09-20T02:23:07.213Z,99.90
2022-09-20T02:28:17.146Z,99.90
2022-09-20T02:33:27.792Z,99.90
2022-09-20T02:38:39.741Z,99.90
2022-09-20T02:43:56.436Z,99.90
2022-09-20T02:49:03.984Z,99.90
2022-09-20T02:54:17.098Z,99.90
2022-09-20T02:59:27.777Z,99.90
2022-09-20T03:05:04.806Z,99.90
2022-09-20T03:10:25.277Z,99.90
2022-09-20T03:16:08.806Z,99.90
2022-09-20T03:21:44.815Z,99.90
2022-09-20T03:27:05.118Z,99.90
2022-09-20T03:32:30.087Z,99.90
2022-09-20T03:37:51.764Z,99.90
2022-09-20T03:42:56.712Z,99.90
2022-09-20T03:48:20.284Z,99.90
2022-09-20T03:53:50.637Z,99.90
2022-09-20T03:59:13.404Z,99.90
2022-09-20T04:04:53.636Z,99.90
2022-09-20T04:10:16.327Z,99.90
2022-09-20T04:15:24.307Z,99.90
2022-09-20T04:20:50.191Z,99.90
2022-09-20T04:25:51.963Z,99.90
2022-09-20T04:30:59.748Z,99.90
2022-09-20T04:36:29.179Z,99.90
2022-09-20T04:41:34.407Z,99.90
2022-09-20T04:46:57.094Z,99.90
2022-09-20T04:52:23.215Z,99.90
2022-09-20T04:57:44.050Z,99.90
2022-09-20T05:03:03.062Z,99.90
2022-09-20T05:08:42.440Z,99.90
2022-09-20T05:13:55.312Z,99.90
2022-09-20T05:19:31.652Z,99.90
2022-09-20T05:24:59.315Z,99.90
2022-09-20T05:30:08.895Z,99.90
2022-09-20T05:35:43.306Z,99.90
2022-09-20T05:41:08.265Z,99.90
2022-09-20T05:46:19.030Z,99.90
2022-09-20T05:51:42.296Z,99.90
2022-09-20T05:57:02.062Z,99.90
2022-09-20T06:02:27.305Z,99.90
2022-09-20T06:07:33.814Z,99.90
2022-09-20T06:12:53.963Z,99.90
2022-09-20T06:18:13.852Z,99.90
2022-09-20T06:23:16.003Z,99.90
2022-09-20T06:28:24.059Z,99.90
2022-09-20T06:33:28.437Z,99.90
2022-09-20T06:39:13.612Z,99.90
2022-09-20T06:44:15.423Z,99.90
2022-09-20T06:49:17.362Z,99.90
2022-09-20T06:54:20.982Z,99.90
2022-09-20T06:59:22.744Z,99.90
2022-09-20T07:04:26.654Z,99.90
2022-09-20T07:09:28.548Z,99.90
2022-09-20T07:14:30.264Z,99.90
2022-09-20T07:19:32.035Z,99.90
2022-09-20T07:24:33.772Z,99.90
2022-09-20T07:29:35.651Z,99.90
2022-09-20T07:34:37.411Z,99.90
2022-09-20T07:39:39.251Z,99.90
2022-09-20T07:44:42.384Z,99.90
2022-09-20T07:49:44.231Z,99.90
2022-09-20T07:54:46.011Z,99.90
2022-09-20T07:59:47.863Z,99.90
2022-09-20T08:04:49.893Z,99.90
2022-09-20T08:09:51.644Z,99.90
2022-09-20T08:14:53.786Z,99.90
2022-09-20T08:19:55.640Z,99.90
2022-09-20T08:24:57.379Z,99.90
2022-09-20T08:30:01.159Z,99.90
2022-09-20T08:35:03.935Z,91.20
2022-09-20T08:40:06.467Z,81.00
2022-09-20T08:45:22.235Z,68.60
2022-09-20T08:50:24.728Z,54.40
2022-09-20T08:55:36.557Z,48.40
2022-09-20T09:00:40.385Z,55.60
2022-09-20T09:05:50.510Z,62.60
2022-09-20T09:11:04.755Z,80.40
2022-09-20T09:16:14.891Z,91.00
2022-09-20T09:21:23.702Z,91.00
2022-09-20T09:26:25.989Z,81.60
2022-09-20T09:31:27.818Z,90.50
2022-09-20T09:36:29.623Z,99.90
2022-09-20T09:41:36.896Z,99.90
2022-09-20T09:46:42.727Z,99.90
2022-09-20T09:52:15.797Z,99.90
2022-09-20T09:57:23.708Z,99.90
2022-09-20T10:02:38.563Z,99.90
2022-09-20T10:07:59.573Z,99.90
2022-09-20T10:13:11.916Z,99.90
2022-09-20T10:18:25.822Z,99.90
2022-09-20T10:24:04.892Z,99.90
2022-09-20T10:29:23.212Z,99.90
2022-09-20T10:34:27.911Z,99.90
2022-09-20T10:39:36.767Z,99.90
2022-09-20T10:44:38.471Z,99.90
2022-09-20T10:49:46.088Z,99.90
2022-09-20T10:55:06.305Z,99.90
2022-09-20T11:00:22.272Z,99.90
2022-09-20T11:05:39.339Z,99.90
2022-09-20T11:10:46.902Z,99.90
2022-09-20T11:16:05.784Z,99.90
2022-09-20T11:21:16.585Z,99.90
2022-09-20T11:26:44.819Z,99.90
2022-09-20T11:31:50.410Z,99.90
2022-09-20T11:37:02.639Z,99.90
2022-09-20T11:42:07.080Z,99.90
2022-09-20T11:47:31.169Z,99.90
2022-09-20T11:52:56.463Z,99.90
2022-09-20T11:58:08.125Z,99.90
2022-09-20T12:03:33.025Z,99.90
2022-09-20T12:08:40.788Z,99.90
2022-09-20T12:13:53.052Z,99.90
2022-09-20T12:18:54.812Z,99.90
2022-09-20T12:23:56.712Z,99.90
2022-09-20T12:29:01.609Z,99.90
2022-09-20T12:34:13.245Z,99.90
2022-09-20T12:39:29.486Z,99.90
2022-09-20T12:44:49.830Z,99.90
2022-09-20T12:50:12.641Z,99.90
2022-09-20T12:55:50.288Z,99.90
2022-09-20T13:01:00.826Z,99.90
2022-09-20T13:06:05.984Z,99.90
2022-09-20T13:11:07.737Z,99.90
2022-09-20T13:16:22.758Z,99.90
2022-09-20T13:21:25.706Z,99.90
2022-09-20T13:26:33.989Z,99.90
2022-09-20T13:31:36.642Z,99.90
2022-09-20T13:36:39.527Z,99.90
2022-09-20T13:41:41.255Z,99.90
2022-09-20T13:46:44.998Z,99.90
2022-09-20T13:51:48.183Z,99.90
2022-09-20T13:56:50.907Z,99.90
2022-09-20T14:01:54.830Z,99.90
2022-09-20T14:06:59.576Z,99.90
2022-09-20T14:12:03.119Z,99.90
2022-09-20T14:17:09.545Z,99.90
2022-09-20T14:22:20.336Z,99.90
2022-09-20T14:27:22.849Z,99.90
2022-09-20T14:32:38.147Z,99.90
2022-09-20T14:37:47.834Z,99.90
2022-09-20T14:43:04.154Z,99.90
2022-09-20T14:48:11.925Z,99.90
2022-09-20T14:53:29.727Z,99.90
2022-09-20T14:58:31.999Z,99.90
2022-09-20T15:03:42.710Z,99.90
2022-09-20T15:08:46.765Z,99.90
2022-09-20T15:13:48.775Z,99.90
2022-09-20T15:18:50.566Z,99.90
2022-09-20T15:23:52.973Z,99.90
2022-09-20T15:28:54.716Z,99.90
2022-09-20T15:33:56.564Z,99.90
2022-09-20T15:38:58.878Z,99.90
2022-09-20T15:44:01.605Z,99.90
2022-09-20T15:49:06.536Z,99.90
2022-09-20T15:54:12.702Z,99.90
2022-09-20T15:59:16.058Z,99.90
2022-09-20T16:04:20.014Z,99.90
2022-09-20T16:09:21.782Z,99.90
2022-09-20T16:14:23.556Z,99.90
2022-09-20T16:19:26.155Z,99.90
2022-09-20T16:24:30.538Z,99.90
2022-09-20T16:29:32.984Z,99.90
2022-09-20T16:34:36.262Z,99.90
2022-09-20T16:39:38.315Z,99.90
2022-09-20T16:44:42.726Z,99.90
2022-09-20T16:49:45.769Z,99.90
2022-09-20T16:54:47.576Z,99.90
2022-09-20T16:59:51.823Z,99.90
2022-09-20T17:04:53.626Z,99.90
2022-09-20T17:10:01.224Z,99.90
2022-09-20T17:15:03.053Z,99.90
2022-09-20T17:20:07.176Z,99.90
2022-09-20T17:25:09.343Z,99.90
2022-09-20T17:30:11.905Z,99.90
2022-09-20T17:35:13.651Z,99.90
2022-09-20T17:40:15.470Z,99.90
2022-09-20T17:45:18.156Z,99.90
2022-09-20T17:50:19.863Z,99.90
2022-09-20T17:55:22.134Z,99.90
2022-09-20T18:00:24.169Z,99.90
2022-09-20T18:05:27.271Z,99.90
2022-09-20T18:10:29.028Z,99.90
2022-09-20T18:15:32.882Z,99.90
2022-09-20T18:20:34.567Z,99.90
2022-09-20T18:25:56.276Z,99.90
2022-09-20T18:31:03.160Z,99.90
2022-09-20T18:36:06.113Z,99.90
2022-09-20T18:41:07.823Z,99.90
2022-09-20T18:46:13.576Z,99.90
2022-09-20T18:51:15.986Z,99.90
2022-09-20T18:56:24.038Z,99.90
2022-09-20T19:01:56.212Z,99.90
2022-09-20T19:07:23.056Z,99.90
2022-09-20T19:12:49.621Z,99.90
2022-09-20T19:18:03.402Z,99.90
2022-09-20T19:23:37.507Z,99.90
2022-09-20T19:28:39.828Z,99.90
2022-09-20T19:33:41.786Z,99.90
2022-09-20T19:39:10.015Z,99.90
2022-09-20T19:44:25.983Z,99.90
2022-09-20T19:49:56.887Z,99.90
2022-09-20T19:54:58.977Z,99.90
2022-09-20T20:00:01.084Z,99.90
2022-09-20T20:05:03.746Z,99.90
2022-09-20T20:10:25.783Z,99.90
2022-09-20T20:15:36.742Z,99.90
2022-09-20T20:20:45.515Z,99.90
2022-09-20T20:25:47.459Z,99.90
2022-09-20T20:30:49.227Z,99.90
2022-09-20T20:35:56.722Z,99.90
2022-09-20T20:41:01.671Z,99.90
2022-09-20T20:46:05.006Z,99.90
2022-09-20T20:51:09.699Z,99.90
2022-09-20T20:56:14.262Z,99.90
2022-09-20T21:01:45.893Z,99.90
2022-09-20T21:06:47.750Z,99.90
2022-09-20T21:11:49.483Z,99.90
2022-09-20T21:16:52.067Z,99.90
2022-09-20T21:21:53.825Z,99.90
2022-09-20T21:26:55.544Z,99.90
2022-09-20T21:31:57.359Z,99.90
2022-09-20T21:37:00.061Z,99.90
2022-09-20T21:42:02.258Z,99.90
2022-09-20T21:47:04.880Z,99.90
2022-09-20T21:52:07.212Z,99.90
2022-09-20T21:57:12.665Z,99.90
2022-09-20T22:02:16.979Z,99.90
2022-09-20T22:07:18.923Z,99.90
2022-09-20T22:12:23.939Z,99.90
2022-09-20T22:17:27.067Z,99.90
2022-09-20T22:22:28.831Z,99.90
2022-09-20T22:27:30.638Z,99.90
2022-09-20T22:32:32.408Z,99.90
2022-09-20T22:37:34.144Z,99.90
2022-09-20T22:42:35.882Z,99.90
2022-09-20T22:47:37.589Z,99.90
2022-09-20T22:52:39.370Z,99.90
2022-09-20T22:57:41.095Z,99.90
2022-09-20T23:02:42.851Z,99.90
2022-09-20T23:07:48.555Z,99.90
2022-09-20T23:12:50.803Z,99.90
2022-09-20T23:17:52.535Z,99.90
2022-09-20T23:22:54.296Z,99.90
2022-09-20T23:27:55.978Z,99.90
2022-09-20T23:32:57.772Z,99.90
2022-09-20T23:37:59.478Z,99.90
2022-09-20T23:43:01.218Z,99.90
2022-09-20T23:48:03.260Z,99.90
2022-09-20T23:53:04.970Z,99.90
2022-09-20T23:58:06.707Z,99.90
